Gilead, Nebraska
Current Conditions -  °F | °C
As of 1:15 PM on Friday 21 Nov 2014 (Local Time) from KHJH Reporting Station
Clear Clear  
Wind Chill: 44°   Ceiling: Unl
Heat Index: 44°   Visibility: 10mi
Dew Point: 25°   Wind: 0mph
Humidity: 48%   Direction: NA
Pressure: 30.06"   Gusts: NA
Location:  40.15°N, 97.41°W
Report Text: KHJH 211915Z AUTO 00000KT 10SM CLR 07/M04 A3006 RMK AO2 T00651039
Loading
Personal Weather Stations






























Interactive Weather Map New forecast layout! Learn more

10-Day Weather Forecast

Advertisements
Track Severe Weather on mobile